createdAt,value
2022-12-06T00:02:45.868Z,28.80
2022-12-06T00:13:13.259Z,31.40
2022-12-06T00:23:42.457Z,28.70
2022-12-06T00:34:09.974Z,32.10
2022-12-06T00:44:37.258Z,29.20
2022-12-06T00:55:04.644Z,30.00
2022-12-06T01:05:33.331Z,36.50
2022-12-06T01:16:04.958Z,41.90
2022-12-06T01:26:33.959Z,36.30
2022-12-06T01:37:01.243Z,38.50
2022-12-06T01:47:30.698Z,35.80
2022-12-06T01:58:04.527Z,34.70
2022-12-06T02:08:32.980Z,40.10
2022-12-06T02:19:08.143Z,36.80
2022-12-06T02:29:59.815Z,40.40
2022-12-06T02:40:33.312Z,43.60
2022-12-06T02:51:04.012Z,44.80
2022-12-06T03:01:34.387Z,36.70
2022-12-06T03:12:08.125Z,36.80
2022-12-06T03:22:40.720Z,35.70
2022-12-06T03:33:08.663Z,35.30
2022-12-06T03:43:37.050Z,34.70
2022-12-06T03:54:06.951Z,31.00
2022-12-06T04:04:34.388Z,32.70
2022-12-06T04:15:01.616Z,32.80
2022-12-06T04:25:28.873Z,31.00
2022-12-06T04:36:16.159Z,31.70
2022-12-06T04:46:43.731Z,30.80
2022-12-06T04:57:13.371Z,29.40
2022-12-06T05:07:40.745Z,30.70
2022-12-06T05:18:08.343Z,30.60
2022-12-06T05:28:36.177Z,33.70
2022-12-06T05:39:03.462Z,28.50
2022-12-06T05:49:30.767Z,27.10
2022-12-06T05:59:58.412Z,25.80
2022-12-06T06:10:26.582Z,24.20
2022-12-06T06:20:55.292Z,26.60
2022-12-06T06:31:22.737Z,25.90
2022-12-06T06:41:50.332Z,28.60
2022-12-06T06:52:18.171Z,37.20
2022-12-06T07:02:45.520Z,30.70
2022-12-06T07:13:12.916Z,24.30
2022-12-06T07:23:40.324Z,24.10
2022-12-06T07:34:07.651Z,27.20
2022-12-06T07:44:55.539Z,27.00
2022-12-06T07:55:27.357Z,24.70
2022-12-06T08:05:57.622Z,21.20
2022-12-06T08:16:25.158Z,23.90
2022-12-06T08:26:53.247Z,20.50
2022-12-06T08:37:20.585Z,23.40
2022-12-06T08:47:47.872Z,21.10
2022-12-06T08:58:15.228Z,23.20
2022-12-06T09:08:42.761Z,28.60
2022-12-06T09:19:10.772Z,30.00
2022-12-06T09:29:40.748Z,28.80
2022-12-06T09:40:15.251Z,23.90
2022-12-06T09:50:52.540Z,23.40
2022-12-06T10:01:27.502Z,26.30
2022-12-06T10:12:08.250Z,23.60
2022-12-06T10:22:47.592Z,15.20
2022-12-06T10:33:28.254Z,10.70
2022-12-06T10:44:03.286Z,5.00
2022-12-06T10:54:36.652Z,3.90
2022-12-06T11:05:11.628Z,5.50
2022-12-06T11:15:43.884Z,9.70
2022-12-06T11:26:21.040Z,9.00
2022-12-06T11:36:59.640Z,7.30
2022-12-06T11:47:28.010Z,7.10
2022-12-06T11:58:00.540Z,10.60
2022-12-06T12:08:32.840Z,10.40
2022-12-06T12:19:04.895Z,9.80
2022-12-06T12:29:32.493Z,7.10
2022-12-06T12:40:02.003Z,6.30
2022-12-06T12:50:33.624Z,5.00
2022-12-06T13:01:08.002Z,7.30
2022-12-06T13:11:43.886Z,6.60
2022-12-06T13:22:20.211Z,6.40
2022-12-06T13:32:51.991Z,7.40
2022-12-06T13:43:57.096Z,7.90
2022-12-06T13:54:35.321Z,8.20
2022-12-06T14:05:03.040Z,10.30
2022-12-06T14:15:31.566Z,8.20
2022-12-06T14:26:21.188Z,7.10
2022-12-06T14:36:48.595Z,7.90
2022-12-06T14:47:18.596Z,6.60
2022-12-06T14:57:49.127Z,8.00
2022-12-06T15:08:35.058Z,9.10
2022-12-06T15:19:03.024Z,11.10
2022-12-06T15:29:30.435Z,8.50
2022-12-06T15:39:58.133Z,9.40
2022-12-06T15:50:26.294Z,12.40
2022-12-06T16:00:55.268Z,7.70
2022-12-06T16:11:25.544Z,8.40
2022-12-06T16:21:58.171Z,8.00
2022-12-06T16:32:25.641Z,7.60
2022-12-06T16:42:53.171Z,8.00
2022-12-06T16:53:20.615Z,7.30
2022-12-06T17:03:50.162Z,10.60
2022-12-06T17:14:18.857Z,7.10
2022-12-06T17:24:46.747Z,7.80
2022-12-06T17:35:14.376Z,6.50
2022-12-06T17:45:41.860Z,8.20
2022-12-06T17:56:30.567Z,6.60
2022-12-06T18:06:58.340Z,5.60
2022-12-06T18:17:25.816Z,4.80
2022-12-06T18:27:53.403Z,5.30
2022-12-06T18:38:21.032Z,4.30
2022-12-06T18:48:50.780Z,5.00
2022-12-06T18:59:20.107Z,6.40
2022-12-06T19:09:50.775Z,6.70
2022-12-06T19:20:18.799Z,6.10
2022-12-06T19:30:46.248Z,9.80
2022-12-06T19:41:16.843Z,8.40
2022-12-06T19:51:46.693Z,8.20
2022-12-06T20:02:14.952Z,7.60
2022-12-06T20:12:42.652Z,7.00
2022-12-06T20:23:10.755Z,9.30
2022-12-06T20:33:38.277Z,10.00
2022-12-06T20:44:05.951Z,9.60
2022-12-06T20:54:33.710Z,9.20
2022-12-06T21:05:01.436Z,10.30
2022-12-06T21:15:29.298Z,11.60
2022-12-06T21:25:57.097Z,11.00
2022-12-06T21:36:24.569Z,8.90
2022-12-06T21:46:54.857Z,8.70
2022-12-06T21:57:22.444Z,8.20
2022-12-06T22:07:49.870Z,7.80
2022-12-06T22:18:17.388Z,8.10
2022-12-06T22:28:45.171Z,7.70
2022-12-06T22:39:13.231Z,7.30
2022-12-06T22:49:40.635Z,9.40
2022-12-06T23:00:10.157Z,9.90
2022-12-06T23:10:37.769Z,10.30
2022-12-06T23:21:08.002Z,10.70
2022-12-06T23:31:37.540Z,13.10
2022-12-06T23:42:05.135Z,10.20
2022-12-06T23:52:32.490Z,9.80
